createdAt,value
2023-01-07T00:01:12.202Z,100697.66
2023-01-07T00:03:40.157Z,100704.72
2023-01-07T00:06:09.526Z,100701.25
2023-01-07T00:08:38.569Z,100702.81
2023-01-07T00:11:07.907Z,100704.66
2023-01-07T00:13:35.335Z,100697.72
2023-01-07T00:16:04.435Z,100699.31
2023-01-07T00:18:30.973Z,100694.06
2023-01-07T00:20:59.167Z,100692.16
2023-01-07T00:23:27.395Z,100697.59
2023-01-07T00:26:07.676Z,100692.22
2023-01-07T00:28:36.424Z,100690.91
2023-01-07T00:31:08.141Z,100695.34
2023-01-07T00:33:35.638Z,100686.28
2023-01-07T00:36:04.473Z,100687.31
2023-01-07T00:38:31.590Z,100684.34
2023-01-07T00:40:58.084Z,100688.78
2023-01-07T00:43:25.344Z,100677.34
2023-01-07T00:45:51.992Z,100686.50
2023-01-07T00:48:18.903Z,100670.41
2023-01-07T00:50:47.631Z,100685.66
2023-01-07T00:53:14.591Z,100680.63
2023-01-07T00:55:41.582Z,100687.34
2023-01-07T00:58:19.007Z,100681.19
2023-01-07T01:00:45.810Z,100678.50
2023-01-07T01:03:12.821Z,100685.34
2023-01-07T01:05:39.986Z,100682.03
2023-01-07T01:08:06.629Z,100682.44
2023-01-07T01:10:33.457Z,100676.84
2023-01-07T01:13:00.482Z,100669.41
2023-01-07T01:15:27.311Z,100675.31
2023-01-07T01:17:54.121Z,100670.41
2023-01-07T01:20:20.749Z,100674.66
2023-01-07T01:22:47.320Z,100671.41
2023-01-07T01:25:14.723Z,100673.91
2023-01-07T01:27:41.256Z,100677.56
2023-01-07T01:30:08.539Z,100675.78
2023-01-07T01:32:38.415Z,100667.56
2023-01-07T01:35:05.572Z,100668.31
2023-01-07T01:37:32.203Z,100674.25
2023-01-07T01:39:58.990Z,100662.53
2023-01-07T01:42:26.200Z,100670.84
2023-01-07T01:44:56.326Z,100666.78
2023-01-07T01:47:54.984Z,100673.03
2023-01-07T01:50:28.728Z,100675.22
2023-01-07T01:53:00.483Z,100669.16
2023-01-07T01:55:43.387Z,100674.41
2023-01-07T01:58:16.559Z,100671.84
2023-01-07T02:00:43.425Z,100673.59
2023-01-07T02:03:15.277Z,100672.94
2023-01-07T02:05:42.432Z,100670.44
2023-01-07T02:08:09.368Z,100673.13
2023-01-07T02:10:38.395Z,100668.13
2023-01-07T02:13:38.287Z,100665.75
2023-01-07T02:16:43.257Z,100664.09
2023-01-07T02:19:25.332Z,100653.84
2023-01-07T02:22:04.447Z,100658.16
2023-01-07T02:24:57.367Z,100664.22
2023-01-07T02:27:48.264Z,100650.09
2023-01-07T02:30:39.718Z,100651.78
2023-01-07T02:33:21.280Z,100649.13
2023-01-07T02:36:06.444Z,100640.03
2023-01-07T02:38:58.177Z,100633.63
2023-01-07T02:41:49.648Z,100635.28
2023-01-07T02:44:22.313Z,100629.47
2023-01-07T02:46:56.261Z,100630.44
2023-01-07T02:49:23.121Z,100627.13
2023-01-07T02:51:50.166Z,100624.94
2023-01-07T02:54:27.143Z,100619.66
2023-01-07T02:57:24.710Z,100619.03
2023-01-07T03:00:19.055Z,100612.66
2023-01-07T03:02:59.376Z,100609.47
2023-01-07T03:05:44.765Z,100601.69
2023-01-07T03:08:35.791Z,100598.09
2023-01-07T03:11:05.555Z,100601.72
2023-01-07T03:13:40.580Z,100605.25
2023-01-07T03:16:23.901Z,100599.72
2023-01-07T03:18:59.218Z,100593.78
2023-01-07T03:21:31.813Z,100584.09
2023-01-07T03:24:01.314Z,100584.56
2023-01-07T03:26:38.366Z,100579.72
2023-01-07T03:29:08.768Z,100581.97
2023-01-07T03:31:37.528Z,100582.41
2023-01-07T03:34:12.025Z,100590.63
2023-01-07T03:36:49.524Z,100587.22
2023-01-07T03:39:17.760Z,100581.69
2023-01-07T03:42:03.893Z,100581.22
2023-01-07T03:44:30.733Z,100580.41
2023-01-07T03:46:57.467Z,100576.16
2023-01-07T03:49:24.732Z,100570.97
2023-01-07T03:51:54.310Z,100571.16
2023-01-07T03:54:23.310Z,100570.63
2023-01-07T03:56:50.010Z,100569.63
2023-01-07T03:59:16.557Z,100564.38
2023-01-07T04:01:43.174Z,100569.75
2023-01-07T04:04:10.518Z,100573.13
2023-01-07T04:06:37.371Z,100564.84
2023-01-07T04:09:05.274Z,100555.50
2023-01-07T04:11:33.404Z,100560.69
2023-01-07T04:14:00.777Z,100552.50
2023-01-07T04:16:28.794Z,100552.81
2023-01-07T04:18:56.600Z,100553.47
2023-01-07T04:21:23.208Z,100555.81
2023-01-07T04:23:50.817Z,100549.56
2023-01-07T04:26:17.357Z,100558.28
2023-01-07T04:28:44.042Z,100554.25
2023-01-07T04:31:10.869Z,100552.88
2023-01-07T04:33:37.609Z,100552.88
2023-01-07T04:36:04.840Z,100551.53
2023-01-07T04:38:31.407Z,100545.38
2023-01-07T04:40:58.425Z,100552.47
2023-01-07T04:43:24.974Z,100544.38
2023-01-07T04:45:51.575Z,100539.69
2023-01-07T04:48:18.662Z,100547.25
2023-01-07T04:50:47.260Z,100535.09
2023-01-07T04:53:16.278Z,100540.75
2023-01-07T04:55:46.238Z,100540.41
2023-01-07T04:58:13.641Z,100536.28
2023-01-07T05:00:40.670Z,100535.53
2023-01-07T05:03:07.818Z,100539.38
2023-01-07T05:05:35.512Z,100531.44
2023-01-07T05:08:02.896Z,100532.66
2023-01-07T05:10:30.631Z,100524.28
2023-01-07T05:12:57.482Z,100523.59
2023-01-07T05:15:25.382Z,100526.97
2023-01-07T05:17:54.184Z,100514.66
2023-01-07T05:20:23.713Z,100518.88
2023-01-07T05:22:50.435Z,100528.13
2023-01-07T05:25:18.575Z,100524.25
2023-01-07T05:27:45.343Z,100522.78
2023-01-07T05:30:12.529Z,100514.44
2023-01-07T05:32:39.090Z,100515.31
2023-01-07T05:35:06.087Z,100514.34
2023-01-07T05:37:33.069Z,100518.41
2023-01-07T05:40:00.356Z,100518.06
2023-01-07T05:42:27.593Z,100515.84
2023-01-07T05:44:54.460Z,100516.22
2023-01-07T05:47:21.058Z,100517.19
2023-01-07T05:49:47.585Z,100512.47
2023-01-07T05:52:14.120Z,100515.50
2023-01-07T05:54:40.671Z,100518.72
2023-01-07T05:57:07.169Z,100519.75
2023-01-07T05:59:34.699Z,100507.50
2023-01-07T06:02:02.274Z,100508.81
2023-01-07T06:04:29.318Z,100511.50
2023-01-07T06:06:55.905Z,100516.19
2023-01-07T06:09:22.908Z,100514.31
2023-01-07T06:11:49.678Z,100508.81
2023-01-07T06:14:16.273Z,100511.31
2023-01-07T06:16:42.786Z,100505.44
2023-01-07T06:19:10.663Z,100503.56
2023-01-07T06:21:37.320Z,100509.97
2023-01-07T06:24:04.079Z,100504.28
2023-01-07T06:26:30.619Z,100505.59
2023-01-07T06:28:57.397Z,100498.16
2023-01-07T06:31:24.023Z,100506.28
2023-01-07T06:33:50.557Z,100499.75
2023-01-07T06:36:17.091Z,100502.75
2023-01-07T06:38:43.601Z,100501.44
2023-01-07T06:41:10.150Z,100501.91
2023-01-07T06:43:37.047Z,100494.00
2023-01-07T06:46:03.978Z,100498.69
2023-01-07T06:48:30.516Z,100500.22
2023-01-07T06:50:57.082Z,100496.94
2023-01-07T06:53:23.586Z,100499.19
2023-01-07T06:55:51.249Z,100489.88
2023-01-07T06:58:18.265Z,100491.03
2023-01-07T07:00:45.328Z,100501.63
2023-01-07T07:03:11.948Z,100496.88
2023-01-07T07:05:39.039Z,100502.63
2023-01-07T07:08:06.354Z,100503.53
2023-01-07T07:10:32.950Z,100498.84
2023-01-07T07:12:59.484Z,100497.81
2023-01-07T07:15:26.000Z,100499.31
2023-01-07T07:17:52.770Z,100502.19
2023-01-07T07:20:19.305Z,100496.19
2023-01-07T07:22:47.129Z,100490.88
2023-01-07T07:25:14.409Z,100502.19
2023-01-07T07:27:40.959Z,100506.66
2023-01-07T07:30:08.456Z,100501.16
2023-01-07T07:32:34.983Z,100499.31
2023-01-07T07:35:01.526Z,100500.25
2023-01-07T07:37:28.068Z,100497.34
2023-01-07T07:39:54.816Z,100496.25
2023-01-07T07:42:21.334Z,100497.63
2023-01-07T07:44:50.038Z,100501.59
2023-01-07T07:47:17.014Z,100500.03
2023-01-07T07:49:43.932Z,100497.06
2023-01-07T07:52:10.515Z,100491.41
2023-01-07T07:54:37.041Z,100494.91
2023-01-07T07:57:03.839Z,100495.13
2023-01-07T07:59:30.677Z,100502.69
2023-01-07T08:01:57.415Z,100501.38
2023-01-07T08:04:24.038Z,100494.84
2023-01-07T08:06:50.567Z,100493.72
2023-01-07T08:09:17.091Z,100491.47
2023-01-07T08:11:43.625Z,100493.06
2023-01-07T08:14:10.438Z,100487.88
2023-01-07T08:16:37.036Z,100485.00
2023-01-07T08:19:03.598Z,100486.81
2023-01-07T08:21:30.112Z,100480.53
2023-01-07T08:23:56.640Z,100482.94
2023-01-07T08:26:24.269Z,100477.50
2023-01-07T08:28:51.457Z,100484.91
2023-01-07T08:31:18.122Z,100480.75
2023-01-07T08:33:44.813Z,100478.22
2023-01-07T08:36:21.984Z,100482.78
2023-01-07T08:38:53.840Z,100477.91
2023-01-07T08:41:22.153Z,100479.13
2023-01-07T08:43:48.794Z,100487.16
2023-01-07T08:46:15.379Z,100487.69
2023-01-07T08:48:41.965Z,100482.59
2023-01-07T08:51:09.090Z,100487.56
2023-01-07T08:53:35.610Z,100479.97
2023-01-07T08:56:02.556Z,100481.38
2023-01-07T08:58:29.500Z,100481.66
2023-01-07T09:01:04.583Z,100484.38
2023-01-07T09:03:31.826Z,100476.47
2023-01-07T09:05:58.802Z,100471.97
2023-01-07T09:08:25.677Z,100481.22
2023-01-07T09:10:52.217Z,100477.38
2023-01-07T09:13:18.765Z,100481.16
2023-01-07T09:15:45.546Z,100495.03
2023-01-07T09:18:12.382Z,100481.44
2023-01-07T09:20:39.022Z,100474.22
2023-01-07T09:23:05.686Z,100465.84
2023-01-07T09:25:32.264Z,100468.69
2023-01-07T09:27:58.805Z,100467.59
2023-01-07T09:30:25.379Z,100466.25
2023-01-07T09:32:52.228Z,100471.25
2023-01-07T09:35:19.265Z,100465.16
2023-01-07T09:37:45.815Z,100462.47
2023-01-07T09:40:25.213Z,100461.94
2023-01-07T09:43:16.309Z,100462.13
2023-01-07T09:45:47.815Z,100455.16
2023-01-07T09:48:34.681Z,100463.97
2023-01-07T09:51:16.023Z,100461.44
2023-01-07T09:53:52.465Z,100456.06
2023-01-07T09:56:28.830Z,100464.13
2023-01-07T09:58:58.003Z,100465.16
2023-01-07T10:01:45.811Z,100466.34
2023-01-07T10:04:50.655Z,100458.69
2023-01-07T10:07:39.905Z,100450.63
2023-01-07T10:10:17.150Z,100446.16
2023-01-07T10:13:26.633Z,100451.28
2023-01-07T10:16:20.219Z,100450.88
2023-01-07T10:18:56.956Z,100438.44
2023-01-07T10:21:44.121Z,100437.94
2023-01-07T10:24:21.953Z,100442.97
2023-01-07T10:26:53.300Z,100431.88
2023-01-07T10:29:21.936Z,100439.91
2023-01-07T10:31:49.653Z,100431.28
2023-01-07T10:34:24.763Z,100425.47
2023-01-07T10:37:20.637Z,100417.91
2023-01-07T10:40:19.355Z,100421.72
2023-01-07T10:43:07.342Z,100412.84
2023-01-07T10:46:09.011Z,100410.53
2023-01-07T10:49:07.935Z,100402.66
2023-01-07T10:52:04.818Z,100402.03
2023-01-07T10:54:49.831Z,100398.66
2023-01-07T10:57:24.656Z,100402.00
2023-01-07T10:59:53.705Z,100388.22
2023-01-07T11:02:23.318Z,100385.19
2023-01-07T11:04:49.993Z,100379.53
2023-01-07T11:07:43.974Z,100376.19
2023-01-07T11:10:39.894Z,100372.13
2023-01-07T11:13:14.783Z,100370.97
2023-01-07T11:15:47.307Z,100359.88
2023-01-07T11:18:20.812Z,100366.59
2023-01-07T11:20:51.445Z,100358.41
2023-01-07T11:23:30.300Z,100360.75
2023-01-07T11:26:26.813Z,100357.38
2023-01-07T11:29:24.352Z,100355.03
2023-01-07T11:32:00.438Z,100345.94
2023-01-07T11:34:31.977Z,100344.97
2023-01-07T11:36:59.023Z,100341.97
2023-01-07T11:39:29.564Z,100339.03
2023-01-07T11:42:00.167Z,100339.75
2023-01-07T11:44:27.215Z,100341.50
2023-01-07T11:46:54.702Z,100336.47
2023-01-07T11:49:44.745Z,100335.47
2023-01-07T11:52:19.787Z,100325.13
2023-01-07T11:54:52.015Z,100318.38
2023-01-07T11:57:25.436Z,100303.69
2023-01-07T12:00:13.389Z,100306.81
2023-01-07T12:02:40.037Z,100304.34
2023-01-07T12:05:23.558Z,100294.59
2023-01-07T12:07:51.513Z,100289.84
2023-01-07T12:10:31.110Z,100289.19
2023-01-07T12:12:59.869Z,100282.19
2023-01-07T12:15:34.928Z,100275.47
2023-01-07T12:18:07.315Z,100274.44
2023-01-07T12:21:08.980Z,100272.63
2023-01-07T12:24:01.018Z,100272.84
2023-01-07T12:26:48.549Z,100264.19
2023-01-07T12:29:57.088Z,100257.09
2023-01-07T12:32:26.788Z,100248.91
2023-01-07T12:35:14.242Z,100246.63
2023-01-07T12:37:57.288Z,100246.56
2023-01-07T12:40:48.560Z,100246.19
2023-01-07T12:43:42.636Z,100227.41
2023-01-07T12:46:15.071Z,100233.63
2023-01-07T12:48:57.947Z,100224.88
2023-01-07T12:51:48.592Z,100224.13
2023-01-07T12:54:22.750Z,100215.47
2023-01-07T12:57:07.087Z,100216.06
2023-01-07T12:59:45.810Z,100211.50
2023-01-07T13:02:29.241Z,100201.53
2023-01-07T13:05:30.581Z,100200.50
2023-01-07T13:08:06.275Z,100197.84
2023-01-07T13:10:41.672Z,100201.44
2023-01-07T13:13:33.682Z,100191.13
2023-01-07T13:16:00.981Z,100188.06
2023-01-07T13:18:29.339Z,100187.50
2023-01-07T13:21:08.090Z,100182.75
2023-01-07T13:23:59.601Z,100189.72
2023-01-07T13:26:45.673Z,100182.00
2023-01-07T13:29:19.266Z,100176.25
2023-01-07T13:32:24.721Z,100175.13
2023-01-07T13:35:07.040Z,100178.69
2023-01-07T13:37:41.030Z,100172.47
2023-01-07T13:40:13.527Z,100164.94
2023-01-07T13:43:12.757Z,100156.00
2023-01-07T13:45:41.302Z,100146.31
2023-01-07T13:48:19.307Z,100152.44
2023-01-07T13:51:02.223Z,100146.47
2023-01-07T13:53:32.683Z,100156.44
2023-01-07T13:56:17.428Z,100133.97
2023-01-07T13:58:49.853Z,100134.91
2023-01-07T14:01:19.181Z,100132.16
2023-01-07T14:04:18.941Z,100134.09
2023-01-07T14:06:48.680Z,100133.63
2023-01-07T14:09:20.220Z,100138.25
2023-01-07T14:12:01.724Z,100130.91
2023-01-07T14:15:10.060Z,100123.91
2023-01-07T14:18:03.220Z,100126.81
2023-01-07T14:20:44.861Z,100136.00
2023-01-07T14:23:26.383Z,100124.78
2023-01-07T14:26:01.260Z,100114.13
2023-01-07T14:28:36.899Z,100118.75
2023-01-07T14:31:04.955Z,100114.63
2023-01-07T14:33:38.101Z,100111.72
2023-01-07T14:36:08.607Z,100114.50
2023-01-07T14:38:35.319Z,100113.88
2023-01-07T14:41:10.765Z,100112.34
2023-01-07T14:43:46.244Z,100103.53
2023-01-07T14:46:22.028Z,100095.09
2023-01-07T14:49:18.264Z,100090.13
2023-01-07T14:52:11.184Z,100087.16
2023-01-07T14:54:46.973Z,100087.31
2023-01-07T14:57:36.762Z,100100.53
2023-01-07T15:00:09.504Z,100084.88
2023-01-07T15:03:08.060Z,100085.63
2023-01-07T15:06:10.835Z,100083.84
2023-01-07T15:09:15.187Z,100083.47
2023-01-07T15:12:02.354Z,100061.16
2023-01-07T15:15:05.786Z,100055.28
2023-01-07T15:17:33.140Z,100055.91
2023-01-07T15:20:04.349Z,100057.97
2023-01-07T15:22:50.058Z,100050.59
2023-01-07T15:25:27.770Z,100052.50
2023-01-07T15:28:04.388Z,100046.03
2023-01-07T15:30:49.535Z,100043.50
2023-01-07T15:33:39.099Z,100034.66
2023-01-07T15:36:11.157Z,100024.47
2023-01-07T15:38:47.949Z,100019.47
2023-01-07T15:41:28.098Z,100006.72
2023-01-07T15:43:55.843Z,100010.72
2023-01-07T15:46:24.477Z,100006.41
2023-01-07T15:49:09.901Z,100013.59
2023-01-07T15:51:39.895Z,100013.09
2023-01-07T15:54:22.356Z,100009.06
2023-01-07T15:56:50.005Z,100017.53
2023-01-07T15:59:21.467Z,100014.72
2023-01-07T16:01:50.795Z,100008.41
2023-01-07T16:04:31.311Z,100001.88
2023-01-07T16:07:00.252Z,99997.84
2023-01-07T16:09:27.493Z,99988.97
2023-01-07T16:11:54.699Z,99984.88
2023-01-07T16:14:26.614Z,99980.69
2023-01-07T16:17:13.456Z,99971.06
2023-01-07T16:19:40.346Z,99970.22
2023-01-07T16:22:09.930Z,99976.59
2023-01-07T16:24:37.141Z,99974.59
2023-01-07T16:27:05.636Z,99978.59
2023-01-07T16:29:38.757Z,99971.91
2023-01-07T16:32:07.269Z,99973.25
2023-01-07T16:34:33.907Z,99960.50
2023-01-07T16:37:03.177Z,99957.44
2023-01-07T16:39:42.274Z,99953.03
2023-01-07T16:42:24.695Z,99945.47
2023-01-07T16:44:54.271Z,99957.91
2023-01-07T16:47:22.821Z,99957.47
2023-01-07T16:49:54.896Z,99946.13
2023-01-07T16:52:26.472Z,99957.03
2023-01-07T16:54:53.560Z,99957.84
2023-01-07T16:57:29.631Z,99949.47
2023-01-07T16:59:58.464Z,99937.09
2023-01-07T17:02:40.158Z,99931.22
2023-01-07T17:05:19.896Z,99935.41
2023-01-07T17:08:02.748Z,99937.66
2023-01-07T17:10:36.469Z,99933.13
2023-01-07T17:13:07.656Z,99940.34
2023-01-07T17:15:40.269Z,99940.28
2023-01-07T17:18:13.143Z,99942.88
2023-01-07T17:20:57.777Z,99937.81
2023-01-07T17:23:27.637Z,99937.69
2023-01-07T17:26:02.196Z,99932.22
2023-01-07T17:28:34.630Z,99926.88
2023-01-07T17:31:02.478Z,99925.31
2023-01-07T17:33:30.127Z,99905.59
2023-01-07T17:35:57.618Z,99908.59
2023-01-07T17:38:24.567Z,99908.31
2023-01-07T17:40:52.225Z,99903.13
2023-01-07T17:43:33.640Z,99884.66
2023-01-07T17:46:01.845Z,99884.22
2023-01-07T17:48:29.833Z,99893.19
2023-01-07T17:50:59.346Z,99884.84
2023-01-07T17:53:32.387Z,99881.78
2023-01-07T17:56:02.987Z,99876.84
2023-01-07T17:58:33.264Z,99891.91
2023-01-07T18:01:08.775Z,99902.63
2023-01-07T18:03:35.920Z,99884.22
2023-01-07T18:06:03.551Z,99884.16
2023-01-07T18:08:30.390Z,99874.09
2023-01-07T18:11:16.156Z,99869.63
2023-01-07T18:13:43.548Z,99863.41
2023-01-07T18:16:14.864Z,99867.94
2023-01-07T18:18:42.107Z,99878.84
2023-01-07T18:21:15.109Z,99860.31
2023-01-07T18:23:43.876Z,99874.34
2023-01-07T18:26:12.781Z,99863.13
2023-01-07T18:28:40.654Z,99861.13
2023-01-07T18:31:08.447Z,99863.78
2023-01-07T18:33:36.478Z,99855.25
2023-01-07T18:36:03.944Z,99853.09
2023-01-07T18:38:31.561Z,99844.38
2023-01-07T18:40:58.287Z,99850.75
2023-01-07T18:43:25.830Z,99851.28
2023-01-07T18:45:52.845Z,99853.78
2023-01-07T18:48:19.660Z,99855.06
2023-01-07T18:50:48.648Z,99844.84
2023-01-07T18:53:16.915Z,99843.06
2023-01-07T18:55:44.939Z,99844.06
2023-01-07T18:58:16.226Z,99847.41
2023-01-07T19:00:42.942Z,99843.88
2023-01-07T19:03:10.784Z,99833.00
2023-01-07T19:05:41.107Z,99836.38
2023-01-07T19:08:08.063Z,99841.19
2023-01-07T19:10:34.838Z,99834.19
2023-01-07T19:13:01.613Z,99835.84
2023-01-07T19:15:28.355Z,99823.31
2023-01-07T19:17:55.756Z,99821.41
2023-01-07T19:20:22.532Z,99808.91
2023-01-07T19:22:49.379Z,99803.91
2023-01-07T19:25:16.655Z,99811.63
2023-01-07T19:27:43.420Z,99808.13
2023-01-07T19:30:10.863Z,99813.59
2023-01-07T19:32:37.727Z,99807.63
2023-01-07T19:35:04.964Z,99814.94
2023-01-07T19:37:31.839Z,99807.94
2023-01-07T19:40:01.015Z,99811.13
2023-01-07T19:42:27.708Z,99809.63
2023-01-07T19:44:54.558Z,99803.41
2023-01-07T19:47:21.654Z,99800.91
2023-01-07T19:49:48.536Z,99788.53
2023-01-07T19:52:15.275Z,99787.66
2023-01-07T19:54:42.085Z,99778.88
2023-01-07T19:57:09.228Z,99771.63
2023-01-07T19:59:36.103Z,99779.03
2023-01-07T20:02:09.674Z,99773.28
2023-01-07T20:04:50.198Z,99778.00
2023-01-07T20:10:34.808Z,99755.97
2023-01-07T20:13:24.284Z,99749.56
2023-01-07T20:23:49.125Z,99733.91
2023-01-07T20:31:30.531Z,99713.97
2023-01-07T20:34:11.558Z,99710.50
2023-01-07T20:36:50.018Z,99706.78
2023-01-07T20:39:25.692Z,99703.25
2023-01-07T20:42:23.792Z,99699.13
2023-01-07T20:44:55.233Z,99694.19
2023-01-07T20:47:42.762Z,99687.59
2023-01-07T20:50:20.700Z,99687.19
2023-01-07T20:53:09.619Z,99685.56
2023-01-07T20:55:53.660Z,99678.56
2023-01-07T20:58:56.263Z,99673.03
2023-01-07T21:01:40.207Z,99666.91
2023-01-07T21:04:43.228Z,99677.56
2023-01-07T21:07:25.115Z,99669.63
2023-01-07T21:10:08.558Z,99662.38
2023-01-07T21:12:52.131Z,99662.88
2023-01-07T21:15:50.107Z,99678.53
2023-01-07T21:18:25.412Z,99686.19
2023-01-07T21:21:28.864Z,99696.94
2023-01-07T21:24:08.726Z,99691.53
2023-01-07T21:26:56.904Z,99689.94
2023-01-07T21:29:40.544Z,99690.97
2023-01-07T21:32:19.021Z,99689.94
2023-01-07T21:35:48.516Z,99682.13
2023-01-07T21:38:29.544Z,99690.13
2023-01-07T21:41:05.405Z,99694.13
2023-01-07T21:44:07.931Z,99699.78
2023-01-07T21:50:54.666Z,99685.44
2023-01-07T21:53:46.805Z,99667.72
2023-01-07T21:59:23.116Z,99670.06
2023-01-07T22:02:23.965Z,99657.88
2023-01-07T22:05:16.556Z,99657.84
2023-01-07T22:08:04.231Z,99641.50
2023-01-07T22:11:06.243Z,99654.38
2023-01-07T22:14:38.591Z,99650.25
2023-01-07T22:17:41.170Z,99654.50
2023-01-07T22:20:35.408Z,99650.16
2023-01-07T22:26:44.197Z,99650.59
2023-01-07T22:29:29.484Z,99652.53
2023-01-07T22:31:59.216Z,99651.78
2023-01-07T22:34:25.757Z,99642.34
2023-01-07T22:37:12.396Z,99626.25
2023-01-07T22:39:42.856Z,99631.28
2023-01-07T22:42:19.308Z,99617.91
2023-01-07T22:44:55.975Z,99627.56
2023-01-07T22:47:26.849Z,99616.03
2023-01-07T22:49:54.450Z,99620.09
2023-01-07T22:52:21.323Z,99623.97
2023-01-07T22:54:47.963Z,99621.03
2023-01-07T22:57:14.570Z,99618.69
2023-01-07T22:59:41.139Z,99613.44
2023-01-07T23:02:07.922Z,99608.00
2023-01-07T23:04:34.482Z,99605.88
2023-01-07T23:07:01.521Z,99609.41
2023-01-07T23:09:28.053Z,99599.03
2023-01-07T23:11:59.317Z,99592.13
2023-01-07T23:14:27.138Z,99594.13
2023-01-07T23:16:54.938Z,99592.75
2023-01-07T23:19:22.399Z,99591.81
2023-01-07T23:21:52.331Z,99584.41
2023-01-07T23:24:19.186Z,99580.13
2023-01-07T23:26:48.096Z,99574.34
2023-01-07T23:29:15.031Z,99563.75
2023-01-07T23:31:41.644Z,99563.31
2023-01-07T23:34:08.690Z,99561.34
2023-01-07T23:36:39.142Z,99560.69
2023-01-07T23:39:06.458Z,99555.06
2023-01-07T23:41:33.659Z,99554.16
2023-01-07T23:44:00.584Z,99562.38
2023-01-07T23:46:27.098Z,99557.28
2023-01-07T23:48:53.600Z,99559.22
2023-01-07T23:51:20.981Z,99551.16
2023-01-07T23:53:47.962Z,99564.94
2023-01-07T23:56:18.865Z,99557.25
2023-01-07T23:58:45.829Z,99555.25
